Time;durP1;ratioP1;P1;durP2;ratioP2;P2;SDS_P1;SDS_P2;PMS_P1;PMS_P2;Temp;Humidity;BMP_temperature;BMP_pressure;BME280_temperature;BME280_humidity;BME280_pressure;Samples;Min_cycle;Max_cycle;Signal;HPM_P1;HPM_P2
2023/03/31 00:00:29;;;;;;;21.13;11.17;;;13.20;99.90;;;;;;4590585;19;20002;-33
2023/03/31 00:02:20;;;;;;;12.87;10.20;;;13.20;99.90;;;;;;4591150;19;20081;-31
2023/03/31 00:04:00;;;;;;;11.67;10.47;;;13.20;99.90;;;;;;4591067;19;20018;-33
2023/03/31 00:05:36;;;;;;;13.37;11.97;;;13.10;99.90;;;;;;4591622;19;20434;-31
2023/03/31 00:07:07;;;;;;;13.80;11.07;;;13.10;99.90;;;;;;4589660;19;20011;-31
2023/03/31 00:08:41;;;;;;;14.63;11.23;;;13.10;99.90;;;;;;4589519;19;20373;-30
2023/03/31 00:10:14;;;;;;;14.27;12.20;;;13.10;99.90;;;;;;4589860;19;20010;-31
2023/03/31 00:11:49;;;;;;;12.30;10.47;;;13.00;99.90;;;;;;4591319;19;20010;-31
2023/03/31 00:13:20;;;;;;;15.00;11.87;;;13.00;99.90;;;;;;4590943;19;20052;-30
2023/03/31 00:14:53;;;;;;;12.93;10.93;;;13.00;99.90;;;;;;4590436;19;20437;-31
2023/03/31 00:16:24;;;;;;;12.23;10.82;;;13.10;99.90;;;;;;4589795;19;20463;-31
2023/03/31 00:17:59;;;;;;;13.20;10.93;;;13.00;99.90;;;;;;4590294;19;20087;-30
2023/03/31 00:19:33;;;;;;;10.57;9.57;;;13.10;99.90;;;;;;4590675;19;20401;-30
2023/03/31 00:21:13;;;;;;;14.03;10.90;;;13.10;99.90;;;;;;4590513;19;20361;-31
2023/03/31 00:22:45;;;;;;;12.83;10.43;;;13.10;99.90;;;;;;4589356;19;20772;-31
2023/03/31 00:24:16;;;;;;;13.90;11.23;;;13.10;99.90;;;;;;4589721;19;20467;-31
2023/03/31 00:25:49;;;;;;;14.10;11.10;;;13.10;99.90;;;;;;4590851;19;20006;-31
2023/03/31 00:27:20;;;;;;;11.88;10.63;;;13.10;99.90;;;;;;4590450;19;20007;-33
2023/03/31 00:28:52;;;;;;;14.15;11.32;;;13.00;99.90;;;;;;4589990;19;20080;-31
2023/03/31 00:30:24;;;;;;;12.67;11.37;;;13.10;99.90;;;;;;4589754;19;20049;-32
2023/03/31 00:31:58;;;;;;;15.03;11.87;;;13.10;99.90;;;;;;4591025;19;20054;-30
2023/03/31 00:33:29;;;;;;;12.77;11.47;;;13.10;99.90;;;;;;4590215;19;20464;-31
2023/03/31 00:35:05;;;;;;;12.30;11.07;;;13.10;99.90;;;;;;4589033;19;20014;-31
2023/03/31 00:36:46;;;;;;;12.27;10.97;;;13.10;99.90;;;;;;4590549;19;20018;-31
2023/03/31 00:38:20;;;;;;;14.43;12.67;;;13.10;99.90;;;;;;4589811;19;20029;-30
2023/03/31 00:39:52;;;;;;;16.67;13.83;;;13.00;99.90;;;;;;4589689;19;20496;-31
2023/03/31 00:41:23;;;;;;;18.00;14.20;;;13.10;99.90;;;;;;4590589;19;20357;-30
2023/03/31 00:42:54;;;;;;;16.55;13.52;;;13.10;99.90;;;;;;4587642;19;20010;-31
2023/03/31 00:44:28;;;;;;;;;;;13.00;99.90;;;;;;4590794;19;20468;-31
2023/03/31 00:46:16;;;;;;;14.97;12.43;;;13.10;99.90;;;;;;4588998;19;20329;-30
2023/03/31 00:48:12;;;;;;;15.17;13.23;;;13.10;99.90;;;;;;4589790;19;21039;-31
2023/03/31 00:49:49;;;;;;;15.67;13.20;;;13.10;99.90;;;;;;4590101;19;20516;-31
2023/03/31 00:51:23;;;;;;;14.80;12.60;;;13.10;99.90;;;;;;4588757;19;20417;-30
2023/03/31 00:52:58;;;;;;;15.53;12.83;;;13.10;99.90;;;;;;4589148;19;20425;-32
2023/03/31 00:54:31;;;;;;;15.97;14.30;;;13.10;99.90;;;;;;4588796;19;20429;-31
2023/03/31 00:56:11;;;;;;;15.57;13.97;;;13.10;99.90;;;;;;4588453;19;20485;-30
2023/03/31 00:57:43;;;;;;;14.87;13.37;;;13.10;99.90;;;;;;4590206;19;20015;-30
2023/03/31 00:59:16;;;;;;;15.70;14.17;;;13.10;99.90;;;;;;4588626;19;20445;-31
2023/03/31 01:00:48;;;;;;;15.30;13.68;;;13.10;99.90;;;;;;4589640;19;20421;-31
2023/03/31 01:02:24;;;;;;;16.65;14.38;;;13.10;99.90;;;;;;4588998;19;20027;-31
2023/03/31 01:03:56;;;;;;;15.63;14.10;;;13.00;99.90;;;;;;4588569;19;20018;-31
2023/03/31 01:05:35;;;;;;;15.83;14.13;;;13.00;99.90;;;;;;4593915;19;20018;-31
2023/03/31 01:07:17;;;;;;;15.53;13.90;;;13.00;99.90;;;;;;4593497;19;20011;-32
2023/03/31 01:08:50;;;;;;;19.77;15.00;;;13.10;99.90;;;;;;4593445;19;20010;-32
2023/03/31 01:10:23;;;;;;;16.80;15.07;;;13.00;99.90;;;;;;4593652;19;20014;-30
2023/03/31 01:11:54;;;;;;;17.38;14.60;;;13.10;99.90;;;;;;4594263;19;20767;-30
2023/03/31 01:13:26;;;;;;;19.87;15.60;;;13.10;99.90;;;;;;4594769;19;19998;-31
2023/03/31 01:14:58;;;;;;;20.38;17.67;;;13.00;99.90;;;;;;4593211;19;21055;-30
2023/03/31 01:16:29;;;;;;;20.70;17.30;;;13.10;99.90;;;;;;4593621;19;20018;-31
2023/03/31 01:18:02;;;;;;;21.80;17.57;;;13.10;99.90;;;;;;4594054;19;20091;-30
2023/03/31 01:19:42;;;;;;;18.07;16.13;;;13.00;99.90;;;;;;4593354;19;20010;-30
2023/03/31 01:22:02;;;;;;;17.70;15.80;;;13.10;99.90;;;;;;4593191;19;20423;-31
2023/03/31 01:24:01;;;;;;;20.33;16.03;;;13.00;99.90;;;;;;4591755;19;20042;-30
2023/03/31 01:26:01;;;;;;;17.33;15.53;;;13.00;99.90;;;;;;4591685;19;20452;-31
2023/03/31 01:28:06;;;;;;;22.37;15.87;;;13.00;99.90;;;;;;4591948;19;20471;-34
2023/03/31 01:30:01;;;;;;;21.07;15.57;;;13.00;99.90;;;;;;4590897;19;20437;-32
2023/03/31 01:31:46;;;;;;;17.50;15.60;;;13.00;99.90;;;;;;4592081;19;20421;-31
2023/03/31 01:33:32;;;;;;;18.40;15.57;;;13.00;99.90;;;;;;4592133;19;20405;-31
2023/03/31 01:35:25;;;;;;;18.13;16.00;;;13.00;99.90;;;;;;4592020;19;20452;-30
2023/03/31 01:37:17;;;;;;;17.80;15.88;;;13.00;99.90;;;;;;4591612;19;20866;-32
2023/03/31 01:39:09;;;;;;;17.35;15.35;;;13.10;99.90;;;;;;4592282;19;20017;-30
2023/03/31 01:41:02;;;;;;;18.27;15.93;;;13.10;99.90;;;;;;4592062;19;20015;-31
2023/03/31 01:42:33;;;;;;;17.33;15.05;;;13.10;99.90;;;;;;4591687;19;20046;-31
2023/03/31 01:44:15;;;;;;;20.67;16.10;;;13.10;99.90;;;;;;4591542;19;20014;-31
2023/03/31 01:45:50;;;;;;;21.88;16.83;;;13.10;99.90;;;;;;4591665;19;20011;-31
2023/03/31 01:47:47;;;;;;;20.07;16.60;;;13.10;99.90;;;;;;4591676;19;20051;-31
2023/03/31 01:49:22;;;;;;;18.47;16.47;;;13.10;99.90;;;;;;4592008;19;20048;-33
2023/03/31 01:51:09;;;;;;;22.77;18.07;;;13.10;99.90;;;;;;4590092;19;20429;-31
2023/03/31 01:53:05;;;;;;;20.10;16.17;;;13.10;99.90;;;;;;4591572;19;20484;-32
2023/03/31 01:55:08;;;;;;;20.37;17.43;;;13.10;99.90;;;;;;4591418;19;20034;-31
2023/03/31 01:57:00;;;;;;;19.63;16.27;;;13.10;99.90;;;;;;4591473;19;20505;-31
2023/03/31 01:58:48;;;;;;;19.33;16.27;;;13.10;99.90;;;;;;4591211;19;20432;-31
2023/03/31 02:00:24;;;;;;;21.17;17.80;;;13.10;99.90;;;;;;4591155;19;20036;-30
2023/03/31 02:02:09;;;;;;;21.13;16.00;;;13.10;99.90;;;;;;4591098;19;20441;-32
2023/03/31 02:03:45;;;;;;;18.70;16.37;;;13.10;99.90;;;;;;4592417;19;20530;-31
2023/03/31 02:05:19;;;;;;;20.23;16.97;;;13.10;99.90;;;;;;4592255;19;20833;-31
2023/03/31 02:06:55;;;;;;;21.47;16.70;;;13.20;99.90;;;;;;4592082;19;20370;-30
2023/03/31 02:08:35;;;;;;;20.33;16.00;;;13.10;99.90;;;;;;4592635;19;20014;-31
2023/03/31 02:10:07;;;;;;;21.03;17.33;;;13.10;99.90;;;;;;4591829;19;20015;-32
2023/03/31 02:11:39;;;;;;;21.13;16.37;;;13.10;99.90;;;;;;4592765;19;20010;-30
2023/03/31 02:13:12;;;;;;;17.60;15.70;;;13.10;99.90;;;;;;4591962;19;20088;-32
2023/03/31 02:14:45;;;;;;;21.93;16.90;;;13.10;99.90;;;;;;4593018;19;20066;-30
2023/03/31 02:16:23;;;;;;;23.40;16.53;;;13.10;99.90;;;;;;4592406;19;20532;-31
2023/03/31 02:17:57;;;;;;;20.17;16.33;;;13.10;99.90;;;;;;4592668;19;20051;-30
2023/03/31 02:19:31;;;;;;;19.07;15.97;;;13.10;99.90;;;;;;4592334;19;20014;-31
2023/03/31 02:21:04;;;;;;;24.27;15.87;;;13.10;99.90;;;;;;4592715;19;20793;-30
2023/03/31 02:22:35;;;;;;;;;;;13.10;99.90;;;;;;4592865;19;20460;-33
2023/03/31 02:24:10;;;;;;;17.40;15.23;;;13.10;99.90;;;;;;4591027;19;20336;-31
2023/03/31 02:25:52;;;;;;;17.37;14.70;;;13.10;99.90;;;;;;4592584;19;21056;-36
2023/03/31 02:27:37;;;;;;;17.13;15.20;;;13.10;99.90;;;;;;4592021;19;20013;-31
2023/03/31 02:29:09;;;;;;;18.93;14.47;;;13.00;99.90;;;;;;4591397;19;20413;-30
2023/03/31 02:30:52;;;;;;;17.63;14.83;;;13.00;99.90;;;;;;4589807;19;20018;-30
2023/03/31 02:32:31;;;;;;;19.10;15.03;;;13.10;99.90;;;;;;4592584;19;20011;-31
2023/03/31 02:34:03;;;;;;;18.77;14.97;;;13.10;99.90;;;;;;4592958;19;20026;-31
2023/03/31 02:35:35;;;;;;;19.30;15.27;;;13.10;99.90;;;;;;4592964;19;20453;-32
2023/03/31 02:37:07;;;;;;;22.40;15.60;;;13.10;99.90;;;;;;4592198;19;20520;-30
2023/03/31 02:38:42;;;;;;;16.42;14.13;;;13.10;99.90;;;;;;4591527;19;20476;-33
2023/03/31 02:40:17;;;;;;;19.67;15.03;;;13.00;99.90;;;;;;4591260;19;20010;-32
2023/03/31 02:41:49;;;;;;;18.53;14.70;;;13.10;99.90;;;;;;4592673;19;20433;-33
2023/03/31 02:43:21;;;;;;;18.30;16.40;;;13.10;99.90;;;;;;4592042;19;21039;-30
2023/03/31 02:44:52;;;;;;;18.38;15.50;;;13.10;99.90;;;;;;4592263;19;20081;-31
2023/03/31 02:46:24;;;;;;;19.37;16.03;;;13.10;99.90;;;;;;4592271;19;20037;-30
2023/03/31 02:47:57;;;;;;;20.60;16.60;;;13.10;99.90;;;;;;4591377;19;20480;-30
2023/03/31 02:49:30;;;;;;;17.73;14.23;;;13.10;99.90;;;;;;4592301;19;20491;-31
2023/03/31 02:51:08;;;;;;;16.87;14.70;;;13.10;99.90;;;;;;4591399;19;20015;-30
2023/03/31 02:52:59;;;;;;;19.80;14.97;;;13.10;99.90;;;;;;4592455;19;20396;-30
2023/03/31 02:54:47;;;;;;;19.07;15.23;;;13.10;99.90;;;;;;4591761;19;20487;-31
2023/03/31 02:56:26;;;;;;;19.57;15.30;;;13.10;99.90;;;;;;4591915;19;21056;-30
2023/03/31 02:58:11;;;;;;;21.27;15.27;;;13.00;99.90;;;;;;4592554;19;20011;-30
2023/03/31 02:59:53;;;;;;;18.70;14.37;;;13.00;99.90;;;;;;4591220;19;20010;-34
2023/03/31 03:01:47;;;;;;;16.38;13.13;;;13.10;99.90;;;;;;4592147;19;20428;-33
2023/03/31 03:03:23;;;;;;;17.33;12.95;;;13.10;99.90;;;;;;4592093;19;20042;-31
2023/03/31 03:05:01;;;;;;;18.13;12.70;;;13.10;99.90;;;;;;4592500;19;20066;-32
2023/03/31 03:06:44;;;;;;;15.83;13.30;;;13.10;99.90;;;;;;4592803;19;20421;-31
2023/03/31 03:08:29;;;;;;;16.23;12.67;;;13.10;99.90;;;;;;4591892;19;20009;-31
2023/03/31 03:10:09;;;;;;;15.80;13.20;;;13.10;99.90;;;;;;4591705;19;20034;-34
2023/03/31 03:11:45;;;;;;;16.83;13.47;;;13.10;99.90;;;;;;4590785;19;20022;-32
2023/03/31 03:13:29;;;;;;;19.27;15.30;;;13.10;99.90;;;;;;4590955;19;20023;-34
2023/03/31 03:15:12;;;;;;;20.92;14.82;;;13.10;99.90;;;;;;4590752;19;20471;-30
2023/03/31 03:16:58;;;;;;;18.03;14.70;;;13.10;99.90;;;;;;4590767;19;20014;-30
2023/03/31 03:18:31;;;;;;;16.83;14.87;;;13.10;99.90;;;;;;4590731;19;20024;-31
2023/03/31 03:20:08;;;;;;;18.42;13.32;;;13.10;99.90;;;;;;4591610;19;20010;-30
2023/03/31 03:21:39;;;;;;;16.90;15.07;;;13.10;99.90;;;;;;4590573;19;20045;-30
2023/03/31 03:23:11;;;;;;;19.30;14.50;;;13.10;99.90;;;;;;4591266;19;20022;-30
2023/03/31 03:24:43;;;;;;;18.75;13.82;;;13.10;99.90;;;;;;4590822;19;20472;-33
2023/03/31 03:26:20;;;;;;;16.03;13.23;;;13.10;99.90;;;;;;4591622;19;20043;-31
2023/03/31 03:27:52;;;;;;;15.07;11.50;;;13.10;99.90;;;;;;4590333;19;20409;-32
2023/03/31 03:29:23;;;;;;;13.30;10.67;;;13.10;99.90;;;;;;4591146;19;20033;-30
2023/03/31 03:30:55;;;;;;;15.03;11.13;;;13.10;99.90;;;;;;4590951;19;20425;-30
2023/03/31 03:32:27;;;;;;;14.80;10.15;;;13.10;99.90;;;;;;4591546;19;20835;-31
2023/03/31 03:33:58;;;;;;;13.80;9.63;;;13.10;99.90;;;;;;4592006;19;20018;-32
2023/03/31 03:35:29;;;;;;;14.82;9.55;;;13.10;99.90;;;;;;4591821;19;20085;-31
2023/03/31 03:37:01;;;;;;;11.13;8.50;;;13.10;99.90;;;;;;4591389;19;20503;-30
2023/03/31 03:38:33;;;;;;;13.63;8.98;;;13.10;99.90;;;;;;4591727;19;20460;-29
2023/03/31 03:40:05;;;;;;;13.35;8.90;;;13.10;99.90;;;;;;4590390;19;20062;-30
2023/03/31 03:41:37;;;;;;;12.40;7.93;;;13.10;99.90;;;;;;4591797;19;20345;-29
2023/03/31 03:43:09;;;;;;;10.65;8.05;;;13.10;99.90;;;;;;4591527;19;20480;-32
2023/03/31 03:44:40;;;;;;;9.80;7.45;;;13.10;99.90;;;;;;4591410;19;20011;-31
2023/03/31 03:46:11;;;;;;;8.93;8.02;;;13.10;99.90;;;;;;4591831;19;20033;-33
2023/03/31 03:47:44;;;;;;;10.57;8.40;;;13.10;99.90;;;;;;4591527;19;20438;-32
2023/03/31 03:49:16;;;;;;;10.77;7.88;;;13.10;99.90;;;;;;4591206;19;20468;-33
2023/03/31 03:50:48;;;;;;;10.07;7.93;;;13.10;99.90;;;;;;4590263;19;20070;-32
2023/03/31 03:52:20;;;;;;;11.10;8.40;;;13.10;99.90;;;;;;4591724;19;20417;-32
2023/03/31 03:53:51;;;;;;;12.85;8.07;;;13.10;99.90;;;;;;4591422;19;20421;-31
2023/03/31 03:55:22;;;;;;;8.93;7.85;;;13.10;99.90;;;;;;4591451;19;20014;-32
2023/03/31 03:56:54;;;;;;;11.85;9.63;;;13.10;99.90;;;;;;4591369;19;20015;-32
2023/03/31 03:58:29;;;;;;;12.40;9.33;;;13.10;99.90;;;;;;4591655;19;20016;-29
2023/03/31 04:00:00;;;;;;;13.85;9.82;;;13.10;99.90;;;;;;4590861;19;20069;-34
2023/03/31 04:01:31;;;;;;;10.50;8.98;;;13.20;99.90;;;;;;4590827;19;20015;-31
2023/03/31 04:03:02;;;;;;;9.63;8.20;;;13.30;99.90;;;;;;4591170;19;20019;-33
2023/03/31 04:04:35;;;;;;;10.73;9.50;;;13.30;99.90;;;;;;4591812;19;20006;-31
2023/03/31 04:06:06;;;;;;;;;;;13.30;99.90;;;;;;4591755;19;20017;-31
2023/03/31 04:07:41;;;;;;;14.07;9.77;;;13.40;99.90;;;;;;4591099;19;19923;-31
2023/03/31 04:09:14;;;;;;;13.63;10.23;;;13.40;99.90;;;;;;4590941;19;20074;-31
2023/03/31 04:10:48;;;;;;;11.77;9.77;;;13.40;99.90;;;;;;4590456;19;20493;-30
2023/03/31 04:12:21;;;;;;;13.23;9.53;;;13.40;99.90;;;;;;4590669;19;20017;-30
2023/03/31 04:13:54;;;;;;;13.60;10.00;;;13.40;99.90;;;;;;4590443;19;20010;-30
2023/03/31 04:15:27;;;;;;;14.80;10.30;;;13.50;99.90;;;;;;4590234;19;20007;-32
2023/03/31 04:16:59;;;;;;;15.13;9.30;;;13.50;99.90;;;;;;4591498;19;20083;-30
2023/03/31 04:18:31;;;;;;;12.30;9.13;;;13.60;99.90;;;;;;4590474;19;20010;-31
2023/03/31 04:20:08;;;;;;;11.93;9.20;;;13.70;99.90;;;;;;4589510;19;20018;-30
2023/03/31 04:21:44;;;;;;;17.60;9.87;;;13.90;99.90;;;;;;4589614;19;20010;-32
2023/03/31 04:23:17;;;;;;;14.67;9.93;;;13.80;99.90;;;;;;4588769;19;20048;-32
2023/03/31 04:24:51;;;;;;;;;;;13.80;99.90;;;;;;4590279;19;20034;-30
2023/03/31 04:26:29;;;;;;;14.50;10.77;;;13.70;99.90;;;;;;4588957;19;19952;-32
2023/03/31 04:28:01;;;;;;;14.80;10.57;;;13.70;99.90;;;;;;4590064;19;20345;-31
2023/03/31 04:29:32;;;;;;;14.63;11.10;;;13.60;99.90;;;;;;4590036;19;20026;-30
2023/03/31 04:31:05;;;;;;;13.02;11.25;;;13.60;99.90;;;;;;4587784;19;20011;-32
2023/03/31 04:32:36;;;;;;;14.47;12.23;;;13.60;99.90;;;;;;4587807;19;20025;-33
2023/03/31 04:34:12;;;;;;;16.30;12.80;;;13.50;99.90;;;;;;4591129;19;20003;-31
2023/03/31 04:35:51;;;;;;;17.53;13.13;;;13.50;99.90;;;;;;4590487;19;20019;-30
2023/03/31 04:37:27;;;;;;;17.43;14.33;;;13.50;99.90;;;;;;4589395;19;20018;-31
2023/03/31 04:38:59;;;;;;;15.20;13.17;;;13.50;99.90;;;;;;4588195;19;20477;-33
2023/03/31 04:40:31;;;;;;;17.27;12.47;;;13.50;99.90;;;;;;4590013;19;20425;-32
2023/03/31 04:42:02;;;;;;;16.57;13.73;;;13.40;99.90;;;;;;4587794;19;20015;-30
2023/03/31 04:43:35;;;;;;;17.47;12.90;;;13.50;99.90;;;;;;4589857;19;20014;-30
2023/03/31 04:45:07;;;;;;;17.87;14.10;;;13.40;99.90;;;;;;4590465;19;20034;-30
2023/03/31 04:46:39;;;;;;;;;;;13.40;99.90;;;;;;4590485;19;20437;-30
2023/03/31 04:48:10;;;;;;;15.55;12.90;;;13.40;99.90;;;;;;4590324;19;19928;-30
2023/03/31 04:49:42;;;;;;;;;;;13.40;99.90;;;;;;4590105;19;20044;-30
2023/03/31 04:51:16;;;;;;;17.07;12.47;;;13.40;99.90;;;;;;4588645;19;19911;-31
2023/03/31 04:52:48;;;;;;;15.13;12.23;;;13.40;99.90;;;;;;4590119;19;20010;-31
2023/03/31 04:54:19;;;;;;;13.88;12.38;;;13.40;99.90;;;;;;4588636;19;20011;-32
2023/03/31 04:55:51;;;;;;;15.77;13.63;;;13.40;99.90;;;;;;4588715;19;20010;-32
2023/03/31 04:57:22;;;;;;;15.98;13.23;;;13.40;99.90;;;;;;4590388;19;20015;-32
2023/03/31 04:58:53;;;;;;;13.85;12.38;;;13.40;99.90;;;;;;4590645;19;20011;-31
2023/03/31 05:00:25;;;;;;;16.58;12.98;;;13.40;99.90;;;;;;4589984;19;20018;-30
2023/03/31 05:01:57;;;;;;;15.50;13.03;;;13.30;99.90;;;;;;4589814;19;20007;-31
2023/03/31 05:03:28;;;;;;;17.02;12.52;;;13.30;99.90;;;;;;4587557;19;20007;-32
2023/03/31 05:04:59;;;;;;;14.57;12.95;;;13.40;99.90;;;;;;4589680;19;20007;-32
2023/03/31 05:06:31;;;;;;;16.40;12.73;;;13.40;99.90;;;;;;4589719;19;20031;-30
2023/03/31 05:08:02;;;;;;;14.52;13.02;;;13.40;99.90;;;;;;4589118;19;20014;-31
2023/03/31 05:09:33;;;;;;;15.75;13.27;;;13.40;99.90;;;;;;4588839;19;20051;-31
2023/03/31 05:11:05;;;;;;;21.90;15.70;;;13.40;99.90;;;;;;4589016;19;20014;-30
2023/03/31 05:12:37;;;;;;;20.07;16.80;;;13.40;99.90;;;;;;4589701;19;20029;-30
2023/03/31 05:14:28;;;;;;;20.80;17.57;;;13.40;99.90;;;;;;4588753;19;20015;-29
2023/03/31 05:16:13;;;;;;;19.43;16.73;;;13.30;99.90;;;;;;4589183;19;20020;-30
2023/03/31 05:17:44;;;;;;;21.47;17.03;;;13.40;99.90;;;;;;4589413;19;20014;-29
2023/03/31 05:19:17;;;;;;;31.88;21.52;;;13.30;99.90;;;;;;4589799;19;20460;-32
2023/03/31 05:20:48;;;;;;;37.07;27.13;;;13.40;99.90;;;;;;4589597;19;20035;-30
2023/03/31 05:22:21;;;;;;;34.33;26.47;;;13.40;99.90;;;;;;4589617;19;20021;-29
2023/03/31 05:23:52;;;;;;;19.58;17.25;;;13.40;99.90;;;;;;4588057;19;20026;-33
2023/03/31 05:25:24;;;;;;;17.50;13.00;;;13.40;99.90;;;;;;4588727;19;20014;-30
2023/03/31 05:26:57;;;;;;;16.80;13.50;;;13.40;99.90;;;;;;4589585;19;20011;-31
2023/03/31 05:28:30;;;;;;;21.90;15.77;;;13.50;99.90;;;;;;4589851;19;20499;-31
2023/03/31 05:30:03;;;;;;;17.73;15.50;;;13.50;99.90;;;;;;4588534;19;20334;-32
2023/03/31 05:31:35;;;;;;;16.87;12.90;;;13.60;99.90;;;;;;4587930;19;20353;-30
2023/03/31 05:33:07;;;;;;;15.27;13.10;;;13.60;99.90;;;;;;4589504;19;20084;-31
2023/03/31 05:34:42;;;;;;;15.13;13.10;;;13.60;99.90;;;;;;4589042;19;20011;-31
2023/03/31 05:36:14;;;;;;;16.70;12.73;;;13.60;99.90;;;;;;4589550;19;20015;-31
2023/03/31 05:37:47;;;;;;;18.70;14.43;;;13.60;99.90;;;;;;4588070;19;20081;-32
2023/03/31 05:39:18;;;;;;;15.18;13.52;;;13.60;99.90;;;;;;4589050;19;20010;-30
2023/03/31 05:40:52;;;;;;;14.07;11.87;;;13.60;99.90;;;;;;4588481;19;20456;-32
2023/03/31 05:42:26;;;;;;;13.87;11.67;;;13.60;99.90;;;;;;4589081;19;20014;-30
2023/03/31 05:43:59;;;;;;;14.50;11.40;;;13.70;99.90;;;;;;4588298;19;20042;-32
2023/03/31 05:45:35;;;;;;;14.53;11.23;;;13.70;99.90;;;;;;4589084;19;20007;-33
2023/03/31 05:47:06;;;;;;;14.98;11.30;;;13.70;99.90;;;;;;4589181;19;20035;-29
2023/03/31 05:48:38;;;;;;;13.50;11.83;;;13.70;99.90;;;;;;4589699;19;20018;-29
2023/03/31 05:50:10;;;;;;;14.03;10.90;;;13.70;99.90;;;;;;4589051;19;20010;-32
2023/03/31 05:51:43;;;;;;;14.80;11.23;;;13.70;99.90;;;;;;4594135;19;20504;-30
2023/03/31 05:53:15;;;;;;;15.35;11.57;;;13.70;99.90;;;;;;4594236;19;20065;-31
2023/03/31 05:54:49;;;;;;;14.30;11.83;;;13.70;99.90;;;;;;4594022;19;20002;-30
2023/03/31 05:56:21;;;;;;;18.53;14.23;;;13.70;99.90;;;;;;4593687;19;20073;-31
2023/03/31 05:57:53;;;;;;;16.63;14.40;;;13.70;99.90;;;;;;4592714;19;20038;-32
2023/03/31 05:59:25;;;;;;;19.07;15.33;;;13.80;99.90;;;;;;4592837;19;20479;-34
2023/03/31 06:01:07;;;;;;;18.10;12.60;;;14.00;99.90;;;;;;4593332;19;20013;-30
2023/03/31 06:02:39;;;;;;;16.00;11.73;;;14.10;99.90;;;;;;4593789;19;20038;-30
2023/03/31 06:04:12;;;;;;;14.73;11.27;;;14.10;99.90;;;;;;4593678;19;20017;-33
2023/03/31 06:05:48;;;;;;;13.90;11.00;;;14.00;99.90;;;;;;4593539;19;20011;-33
2023/03/31 06:07:23;;;;;;;14.40;10.17;;;13.90;99.90;;;;;;4593919;19;20014;-31
2023/03/31 06:08:55;;;;;;;15.30;9.83;;;13.90;99.90;;;;;;4592243;19;20015;-31
2023/03/31 06:10:27;;;;;;;14.03;9.60;;;13.90;99.90;;;;;;4592715;19;20021;-30
2023/03/31 06:12:00;;;;;;;14.23;10.83;;;13.80;99.90;;;;;;4593472;19;20382;-30
2023/03/31 06:13:35;;;;;;;14.63;11.10;;;13.80;99.90;;;;;;4594173;19;20044;-33
2023/03/31 06:15:07;;;;;;;13.80;11.03;;;13.70;99.90;;;;;;4593126;19;20025;-30
2023/03/31 06:16:38;;;;;;;;;;;13.70;99.90;;;;;;4594673;19;20014;-30
2023/03/31 06:18:10;;;;;;;13.67;9.97;;;13.70;99.90;;;;;;4593761;19;19915;-31
2023/03/31 06:19:42;;;;;;;13.70;11.10;;;13.70;99.90;;;;;;4592276;19;20478;-31
2023/03/31 06:21:16;;;;;;;13.23;9.80;;;13.70;99.90;;;;;;4592688;19;20011;-30
2023/03/31 06:22:47;;;;;;;16.50;12.67;;;13.70;99.90;;;;;;4593402;19;20073;-31
2023/03/31 06:24:18;;;;;;;14.90;11.60;;;13.70;99.90;;;;;;4591772;19;20010;-33
2023/03/31 06:25:51;;;;;;;16.23;11.67;;;13.70;99.90;;;;;;4592759;19;20019;-33
2023/03/31 06:27:24;;;;;;;17.47;13.47;;;13.80;99.90;;;;;;4593228;19;20010;-30
2023/03/31 06:28:56;;;;;;;15.57;12.10;;;13.70;99.90;;;;;;4593062;19;20011;-31
2023/03/31 06:30:27;;;;;;;;;;;13.70;99.90;;;;;;4593475;19;20070;-30
2023/03/31 06:31:59;;;;;;;18.93;13.67;;;13.70;99.90;;;;;;4592776;19;19918;-32
2023/03/31 06:33:31;;;;;;;22.70;16.93;;;13.70;99.90;;;;;;4593161;19;20046;-30
2023/03/31 06:35:03;;;;;;;36.63;23.77;;;13.70;99.90;;;;;;4592966;19;20023;-30
2023/03/31 06:36:35;;;;;;;25.05;18.10;;;13.70;99.90;;;;;;4593058;19;20022;-33
2023/03/31 06:38:06;;;;;;;23.07;16.53;;;13.70;99.90;;;;;;4591157;19;20021;-32
2023/03/31 06:39:38;;;;;;;19.55;13.27;;;13.70;99.90;;;;;;4592190;19;20358;-30
2023/03/31 06:41:12;;;;;;;20.77;14.93;;;13.70;99.90;;;;;;4592971;19;20030;-31
2023/03/31 06:42:44;;;;;;;18.10;12.80;;;13.60;99.90;;;;;;4593253;19;20017;-31
2023/03/31 06:44:18;;;;;;;13.30;11.33;;;13.60;99.90;;;;;;4592179;19;20038;-30
2023/03/31 06:45:52;;;;;;;14.33;11.90;;;13.60;99.90;;;;;;4591768;19;20348;-32
2023/03/31 06:47:23;;;;;;;16.17;13.33;;;13.60;99.90;;;;;;4592568;19;20038;-30
2023/03/31 06:48:55;;;;;;;20.27;14.25;;;13.60;99.90;;;;;;4591578;19;20023;-32
2023/03/31 06:50:28;;;;;;;21.53;16.10;;;13.60;99.90;;;;;;4591532;19;20011;-31
2023/03/31 06:52:02;;;;;;;37.10;25.63;;;13.60;99.90;;;;;;4591074;19;20011;-31
2023/03/31 06:53:35;;;;;;;30.23;19.87;;;13.60;99.90;;;;;;4592362;19;20006;-30
2023/03/31 06:55:08;;;;;;;21.50;17.27;;;13.60;99.90;;;;;;4593081;19;19999;-30
2023/03/31 06:56:40;;;;;;;15.43;11.70;;;13.70;99.90;;;;;;4592183;19;20027;-32
2023/03/31 06:58:11;;;;;;;12.75;10.18;;;13.70;99.90;;;;;;4591670;19;20069;-30
2023/03/31 06:59:43;;;;;;;15.45;10.32;;;13.70;99.90;;;;;;4592044;19;20010;-31
2023/03/31 07:01:15;;;;;;;14.00;10.97;;;13.70;99.90;;;;;;4591898;19;20027;-32
2023/03/31 07:02:48;;;;;;;17.43;12.30;;;13.70;99.90;;;;;;4587582;19;20516;-30
2023/03/31 07:04:28;;;;;;;20.13;13.60;;;13.70;99.90;;;;;;4593790;19;20098;-31
2023/03/31 07:06:03;;;;;;;18.43;12.47;;;13.70;99.90;;;;;;4592695;19;20464;-30
2023/03/31 07:07:36;;;;;;;20.47;15.13;;;13.60;99.90;;;;;;4591138;19;20504;-30
2023/03/31 07:09:27;;;;;;;15.55;11.80;;;13.60;99.90;;;;;;4591867;19;20347;-30
2023/03/31 07:10:59;;;;;;;15.93;10.50;;;13.60;99.90;;;;;;4591175;19;20019;-31
2023/03/31 07:12:33;;;;;;;14.03;9.43;;;13.50;99.90;;;;;;4592471;19;20014;-30
2023/03/31 07:14:04;;;;;;;12.57;9.17;;;13.50;99.90;;;;;;4590769;19;20002;-31
2023/03/31 07:15:35;;;;;;;15.50;11.75;;;13.60;99.90;;;;;;4591659;19;20038;-30
2023/03/31 07:17:07;;;;;;;15.27;10.93;;;13.50;99.90;;;;;;4592303;19;20031;-29
2023/03/31 07:18:40;;;;;;;13.57;10.40;;;13.60;99.90;;;;;;4592572;19;20460;-34
2023/03/31 07:20:13;;;;;;;17.77;12.60;;;13.60;99.90;;;;;;4591109;19;20006;-30
2023/03/31 07:21:45;;;;;;;18.07;14.70;;;13.60;99.90;;;;;;4591486;19;20014;-28
2023/03/31 07:23:17;;;;;;;15.20;11.70;;;13.50;99.90;;;;;;4590686;19;20014;-29
2023/03/31 07:24:48;;;;;;;14.17;9.57;;;13.50;99.90;;;;;;4589464;19;20385;-29
2023/03/31 07:26:20;;;;;;;11.05;9.18;;;13.60;99.90;;;;;;4590508;19;20022;-29
2023/03/31 07:27:51;;;;;;;14.45;10.55;;;13.60;99.90;;;;;;4591206;19;20015;-29
2023/03/31 07:29:22;;;;;;;12.63;9.32;;;13.60;99.90;;;;;;4591263;19;20022;-31
2023/03/31 07:30:53;;;;;;;12.27;9.50;;;13.60;99.90;;;;;;4591534;19;20038;-33
2023/03/31 07:32:25;;;;;;;11.50;8.40;;;13.60;99.90;;;;;;4591322;19;20038;-31
2023/03/31 07:33:57;;;;;;;14.33;10.50;;;13.70;99.90;;;;;;4588968;19;20359;-30
2023/03/31 07:35:30;;;;;;;17.13;9.70;;;13.70;99.90;;;;;;4591084;19;20011;-30
2023/03/31 07:37:04;;;;;;;16.10;8.60;;;13.70;99.90;;;;;;4591640;19;20456;-31
2023/03/31 07:38:35;;;;;;;14.30;9.48;;;13.80;99.90;;;;;;4591303;19;20003;-31
2023/03/31 07:40:08;;;;;;;12.82;10.00;;;13.80;99.90;;;;;;4591188;19;20468;-32
2023/03/31 07:41:39;;;;;;;14.50;8.60;;;13.80;99.90;;;;;;4590220;19;20035;-30
2023/03/31 07:43:11;;;;;;;11.93;8.10;;;13.80;99.90;;;;;;4591527;19;20006;-30
2023/03/31 07:44:42;;;;;;;13.55;9.32;;;13.80;99.90;;;;;;4591015;19;20033;-30
2023/03/31 07:46:24;;;;;;;11.43;8.73;;;13.80;99.90;;;;;;4591884;19;20034;-31
2023/03/31 07:47:55;;;;;;;12.87;8.57;;;13.80;99.90;;;;;;4590048;19;20468;-31
2023/03/31 07:49:36;;;;;;;17.05;9.70;;;13.80;99.90;;;;;;4590868;19;20025;-33
2023/03/31 07:51:14;;;;;;;11.10;7.87;;;13.80;99.90;;;;;;4589053;19;20010;-30
2023/03/31 07:52:46;;;;;;;10.87;7.53;;;13.80;99.90;;;;;;4590013;19;20519;-30
2023/03/31 07:54:19;;;;;;;12.90;8.90;;;13.80;99.90;;;;;;4590873;19;20033;-31
2023/03/31 07:55:50;;;;;;;;;;;13.80;99.90;;;;;;4591050;19;20018;-30
2023/03/31 07:57:23;;;;;;;13.87;8.70;;;13.80;99.90;;;;;;4590944;19;20322;-30
2023/03/31 07:58:55;;;;;;;18.58;9.32;;;13.80;99.90;;;;;;4590856;19;20010;-30
2023/03/31 08:00:26;;;;;;;17.77;11.05;;;13.90;99.90;;;;;;4591469;19;20014;-33
2023/03/31 08:01:58;;;;;;;16.17;9.80;;;13.80;99.90;;;;;;4591599;19;20003;-30
2023/03/31 08:03:33;;;;;;;;;;;13.80;99.90;;;;;;4590771;19;20412;-31
2023/03/31 08:05:06;;;;;;;11.73;8.23;;;13.80;99.90;;;;;;4590545;19;19914;-30
2023/03/31 08:06:38;;;;;;;12.90;9.70;;;13.80;99.90;;;;;;4588160;19;20047;-30